Granby, Colorado
Current Conditions -  °F | °C
As of 12:30 AM on Thursday 23 Oct 2014 (Local Time) from K0CO Reporting Station
Clear Clear  
Wind Chill: -12°   Ceiling: Unl
Heat Index: -3°   Visibility: 10mi
Dew Point: -5°   Wind: 28mph
Humidity: 86%   Direction: 290°WNW
Pressure: 30.42"   Gusts: 37mph
Location:  40.09°N, 105.94°W
Report Text: K0CO 230630Z AUTO 29024G32KT 10SM CLR M03/M05 A3042 RMK AO2
Loading
Personal Weather Stations






























Interactive Weather Map
Tropical Storm Tracking
New forecast layout! Learn more

10-Day Weather Forecast

Advertisements
Track Severe Weather on mobile